Terminal Aerodrome Forecast
Issued by NWS

Home | Current Version | Previous Version | Text Only | Print | Product List | Glossary On
Versions: 1 2 3 4 5 6 7 8 9 10 11 12 13 14 15 16 17 18 19 20 21 22
000
FTAK31 PAFA 062337
TAFAOM
TAF
PAOM 062337Z 0700/0724 18005KT P6SM BKN100 OVC120
     FM070300 22006KT P6SM BKN100
     FM070800 36003KT P6SM BKN100
     FM072100 20007KT P6SM BKN050 OVC100=

USA.gov is the U.S. government's official web portal to all federal, state and local government web resources and services.